sensor_id;sensor_type;location;lat;lon;timestamp;pressure;altitude;pressure_sealevel;temperature;humidity
75460;BME280;64039;53.060;9.342;2022-12-15T00:02:42;100078.47;;;-9.78;100.00
75460;BME280;64039;53.060;9.342;2022-12-15T00:05:26;100081.53;;;-9.72;100.00
75460;BME280;64039;53.060;9.342;2022-12-15T00:08:10;100080.88;;;-9.60;100.00
75460;BME280;64039;53.060;9.342;2022-12-15T00:10:54;100072.69;;;-9.39;100.00
75460;BME280;64039;53.060;9.342;2022-12-15T00:13:39;100063.97;;;-9.42;100.00
75460;BME280;64039;53.060;9.342;2022-12-15T00:16:23;100065.13;;;-9.39;100.00
75460;BME280;64039;53.060;9.342;2022-12-15T00:19:07;100080.19;;;-9.30;100.00
75460;BME280;64039;53.060;9.342;2022-12-15T00:21:51;100072.34;;;-9.33;100.00
75460;BME280;64039;53.060;9.342;2022-12-15T00:24:35;100080.94;;;-9.31;100.00
75460;BME280;64039;53.060;9.342;2022-12-15T00:27:20;100082.53;;;-9.12;100.00
75460;BME280;64039;53.060;9.342;2022-12-15T00:30:05;100086.34;;;-9.07;100.00
75460;BME280;64039;53.060;9.342;2022-12-15T00:32:50;100088.28;;;-8.94;100.00
75460;BME280;64039;53.060;9.342;2022-12-15T00:35:34;100093.25;;;-9.15;100.00
75460;BME280;64039;53.060;9.342;2022-12-15T00:38:18;100093.25;;;-9.15;100.00
75460;BME280;64039;53.060;9.342;2022-12-15T00:41:03;100079.94;;;-9.04;100.00
75460;BME280;64039;53.060;9.342;2022-12-15T00:43:30;100086.63;;;-9.04;100.00
75460;BME280;64039;53.060;9.342;2022-12-15T00:45:56;100077.50;;;-8.83;100.00
75460;BME280;64039;53.060;9.342;2022-12-15T00:48:41;100077.16;;;-8.77;100.00
75460;BME280;64039;53.060;9.342;2022-12-15T00:51:07;100073.38;;;-8.72;100.00
75460;BME280;64039;53.060;9.342;2022-12-15T00:53:33;100070.22;;;-8.70;100.00
75460;BME280;64039;53.060;9.342;2022-12-15T00:56:16;100068.84;;;-8.66;100.00
75460;BME280;64039;53.060;9.342;2022-12-15T00:59:01;100073.25;;;-8.74;100.00
75460;BME280;64039;53.060;9.342;2022-12-15T01:01:45;100075.78;;;-8.74;100.00
75460;BME280;64039;53.060;9.342;2022-12-15T01:04:29;100072.88;;;-8.68;100.00
75460;BME280;64039;53.060;9.342;2022-12-15T01:07:13;100074.28;;;-8.61;100.00
75460;BME280;64039;53.060;9.342;2022-12-15T01:09:58;100073.06;;;-8.56;100.00
75460;BME280;64039;53.060;9.342;2022-12-15T01:12:42;100083.50;;;-8.41;100.00
75460;BME280;64039;53.060;9.342;2022-12-15T01:15:26;100089.31;;;-8.42;100.00
75460;BME280;64039;53.060;9.342;2022-12-15T01:18:10;100086.44;;;-8.47;100.00
75460;BME280;64039;53.060;9.342;2022-12-15T01:20:59;100092.97;;;-8.39;100.00
75460;BME280;64039;53.060;9.342;2022-12-15T01:23:26;100090.09;;;-8.33;100.00
75460;BME280;64039;53.060;9.342;2022-12-15T01:25:52;100084.16;;;-8.33;100.00
75460;BME280;64039;53.060;9.342;2022-12-15T01:28:19;100087.69;;;-8.42;100.00
75460;BME280;64039;53.060;9.342;2022-12-15T01:30:45;100091.72;;;-8.44;100.00
75460;BME280;64039;53.060;9.342;2022-12-15T01:33:11;100088.72;;;-8.40;100.00
75460;BME280;64039;53.060;9.342;2022-12-15T01:35:37;100095.53;;;-8.28;100.00
75460;BME280;64039;53.060;9.342;2022-12-15T01:38:03;100088.59;;;-8.31;100.00
75460;BME280;64039;53.060;9.342;2022-12-15T01:40:29;100100.59;;;-8.18;100.00
75460;BME280;64039;53.060;9.342;2022-12-15T01:43:19;100106.75;;;-8.25;100.00
75460;BME280;64039;53.060;9.342;2022-12-15T01:48:14;100117.63;;;-8.15;100.00
75460;BME280;64039;53.060;9.342;2022-12-15T01:50:56;100113.72;;;-8.22;100.00
75460;BME280;64039;53.060;9.342;2022-12-15T01:53:26;100125.22;;;-8.15;100.00
75460;BME280;64039;53.060;9.342;2022-12-15T01:55:52;100123.47;;;-8.06;100.00
75460;BME280;64039;53.060;9.342;2022-12-15T01:58:19;100134.47;;;-7.95;100.00
75460;BME280;64039;53.060;9.342;2022-12-15T02:00:46;100136.50;;;-7.91;100.00
75460;BME280;64039;53.060;9.342;2022-12-15T02:03:12;100132.44;;;-7.99;100.00
75460;BME280;64039;53.060;9.342;2022-12-15T02:05:38;100131.09;;;-7.85;100.00
75460;BME280;64039;53.060;9.342;2022-12-15T02:08:05;100142.72;;;-7.77;100.00
75460;BME280;64039;53.060;9.342;2022-12-15T02:11:22;100144.97;;;-7.80;100.00
75460;BME280;64039;53.060;9.342;2022-12-15T02:13:34;100149.38;;;-7.78;100.00
75460;BME280;64039;53.060;9.342;2022-12-15T02:16:22;100147.59;;;-7.79;100.00
75460;BME280;64039;53.060;9.342;2022-12-15T02:19:17;100156.59;;;-7.82;100.00
75460;BME280;64039;53.060;9.342;2022-12-15T02:22:24;100155.56;;;-7.84;100.00
75460;BME280;64039;53.060;9.342;2022-12-15T02:28:02;100169.72;;;-7.86;100.00
75460;BME280;64039;53.060;9.342;2022-12-15T02:30:59;100158.84;;;-7.75;100.00
75460;BME280;64039;53.060;9.342;2022-12-15T02:33:51;100160.91;;;-7.71;100.00
75460;BME280;64039;53.060;9.342;2022-12-15T02:36:48;100150.03;;;-7.70;100.00
75460;BME280;64039;53.060;9.342;2022-12-15T02:39:17;100142.31;;;-7.71;100.00
75460;BME280;64039;53.060;9.342;2022-12-15T02:41:45;100153.19;;;-7.83;100.00
75460;BME280;64039;53.060;9.342;2022-12-15T02:44:20;100157.34;;;-7.83;100.00
75460;BME280;64039;53.060;9.342;2022-12-15T02:47:16;100165.19;;;-7.80;100.00
75460;BME280;64039;53.060;9.342;2022-12-15T02:55:49;100175.22;;;-8.01;100.00
75460;BME280;64039;53.060;9.342;2022-12-15T02:58:26;100160.97;;;-8.11;100.00
75460;BME280;64039;53.060;9.342;2022-12-15T03:01:00;100169.19;;;-7.93;100.00
75460;BME280;64039;53.060;9.342;2022-12-15T03:03:27;100161.38;;;-7.96;100.00
75460;BME280;64039;53.060;9.342;2022-12-15T03:05:55;100151.91;;;-7.98;100.00
75460;BME280;64039;53.060;9.342;2022-12-15T03:08:21;100153.44;;;-7.90;100.00
75460;BME280;64039;53.060;9.342;2022-12-15T03:10:49;100155.22;;;-7.89;100.00
75460;BME280;64039;53.060;9.342;2022-12-15T03:13:15;100149.25;;;-7.90;100.00
75460;BME280;64039;53.060;9.342;2022-12-15T03:15:41;100156.34;;;-7.85;100.00
75460;BME280;64039;53.060;9.342;2022-12-15T03:18:06;100159.47;;;-7.88;100.00
75460;BME280;64039;53.060;9.342;2022-12-15T03:20:32;100156.69;;;-8.01;100.00
75460;BME280;64039;53.060;9.342;2022-12-15T03:22:57;100160.25;;;-7.89;100.00
75460;BME280;64039;53.060;9.342;2022-12-15T03:25:23;100157.22;;;-7.85;100.00
75460;BME280;64039;53.060;9.342;2022-12-15T03:27:48;100159.59;;;-7.97;100.00
75460;BME280;64039;53.060;9.342;2022-12-15T03:30:14;100157.44;;;-8.02;100.00
75460;BME280;64039;53.060;9.342;2022-12-15T03:32:39;100158.19;;;-8.03;100.00
75460;BME280;64039;53.060;9.342;2022-12-15T03:35:05;100161.75;;;-8.01;100.00
75460;BME280;64039;53.060;9.342;2022-12-15T03:37:31;100161.22;;;-8.08;100.00
75460;BME280;64039;53.060;9.342;2022-12-15T03:39:56;100170.94;;;-8.12;100.00
75460;BME280;64039;53.060;9.342;2022-12-15T03:42:22;100176.38;;;-8.08;100.00
75460;BME280;64039;53.060;9.342;2022-12-15T03:45:06;100170.94;;;-8.12;100.00
75460;BME280;64039;53.060;9.342;2022-12-15T03:47:31;100176.84;;;-8.12;100.00
75460;BME280;64039;53.060;9.342;2022-12-15T03:49:57;100172.72;;;-8.11;100.00
75460;BME280;64039;53.060;9.342;2022-12-15T03:52:24;100177.88;;;-8.10;100.00
75460;BME280;64039;53.060;9.342;2022-12-15T03:54:49;100191.97;;;-8.22;100.00
75460;BME280;64039;53.060;9.342;2022-12-15T03:57:15;100182.41;;;-8.16;100.00
75460;BME280;64039;53.060;9.342;2022-12-15T03:59:40;100190.06;;;-8.25;100.00
75460;BME280;64039;53.060;9.342;2022-12-15T04:02:08;100189.38;;;-8.13;100.00
75460;BME280;64039;53.060;9.342;2022-12-15T04:04:36;100188.25;;;-8.07;100.00
75460;BME280;64039;53.060;9.342;2022-12-15T04:07:02;100181.81;;;-7.93;100.00
75460;BME280;64039;53.060;9.342;2022-12-15T04:09:27;100187.66;;;-7.94;100.00
75460;BME280;64039;53.060;9.342;2022-12-15T04:11:53;100181.81;;;-7.93;100.00
75460;BME280;64039;53.060;9.342;2022-12-15T04:14:18;100188.09;;;-8.08;100.00
75460;BME280;64039;53.060;9.342;2022-12-15T04:16:44;100184.81;;;-8.07;100.00
75460;BME280;64039;53.060;9.342;2022-12-15T04:19:09;100190.00;;;-8.06;100.00
75460;BME280;64039;53.060;9.342;2022-12-15T04:21:54;100184.22;;;-7.94;100.00
75460;BME280;64039;53.060;9.342;2022-12-15T04:24:20;100188.13;;;-7.98;100.00
75460;BME280;64039;53.060;9.342;2022-12-15T04:27:04;100195.56;;;-8.10;100.00
75460;BME280;64039;53.060;9.342;2022-12-15T04:29:48;100196.94;;;-8.13;100.00
75460;BME280;64039;53.060;9.342;2022-12-15T04:32:32;100197.34;;;-8.09;100.00
75460;BME280;64039;53.060;9.342;2022-12-15T04:35:16;100197.72;;;-8.04;100.00
75460;BME280;64039;53.060;9.342;2022-12-15T04:38:00;100202.94;;;-7.92;100.00
75460;BME280;64039;53.060;9.342;2022-12-15T04:40:44;100200.03;;;-7.86;100.00
75460;BME280;64039;53.060;9.342;2022-12-15T04:43:28;100198.38;;;-7.86;100.00
75460;BME280;64039;53.060;9.342;2022-12-15T04:46:12;100207.47;;;-7.98;100.00
75460;BME280;64039;53.060;9.342;2022-12-15T04:48:56;100209.25;;;-7.87;100.00
75460;BME280;64039;53.060;9.342;2022-12-15T04:51:40;100208.09;;;-7.91;100.00
75460;BME280;64039;53.060;9.342;2022-12-15T04:54:24;100211.25;;;-7.93;100.00
75460;BME280;64039;53.060;9.342;2022-12-15T04:57:07;100212.69;;;-7.86;100.00
75460;BME280;64039;53.060;9.342;2022-12-15T04:59:52;100214.94;;;-7.90;100.00
75460;BME280;64039;53.060;9.342;2022-12-15T05:02:35;100218.88;;;-7.83;100.00
75460;BME280;64039;53.060;9.342;2022-12-15T05:05:19;100220.63;;;-7.92;100.00
75460;BME280;64039;53.060;9.342;2022-12-15T05:08:03;100219.50;;;-7.85;100.00
75460;BME280;64039;53.060;9.342;2022-12-15T05:10:47;100217.72;;;-7.76;100.00
75460;BME280;64039;53.060;9.342;2022-12-15T05:13:31;100221.03;;;-7.77;100.00
75460;BME280;64039;53.060;9.342;2022-12-15T05:16:15;100224.94;;;-7.81;100.00
75460;BME280;64039;53.060;9.342;2022-12-15T05:18:58;100219.75;;;-7.82;100.00
75460;BME280;64039;53.060;9.342;2022-12-15T05:21:42;100219.25;;;-7.68;100.00
75460;BME280;64039;53.060;9.342;2022-12-15T05:24:26;100226.75;;;-7.59;100.00
75460;BME280;64039;53.060;9.342;2022-12-15T05:27:10;100225.59;;;-7.63;100.00
75460;BME280;64039;53.060;9.342;2022-12-15T05:29:54;100224.69;;;-7.74;100.00
75460;BME280;64039;53.060;9.342;2022-12-15T05:32:38;100222.66;;;-7.78;100.00
75460;BME280;64039;53.060;9.342;2022-12-15T05:35:04;100236.97;;;-7.58;100.00
75460;BME280;64039;53.060;9.342;2022-12-15T05:37:29;100234.59;;;-7.56;100.00
75460;BME280;64039;53.060;9.342;2022-12-15T05:39:55;100231.03;;;-7.58;100.00
75460;BME280;64039;53.060;9.342;2022-12-15T05:42:20;100231.44;;;-7.53;100.00
75460;BME280;64039;53.060;9.342;2022-12-15T05:44:46;100235.56;;;-7.54;100.00
75460;BME280;64039;53.060;9.342;2022-12-15T05:47:11;100231.53;;;-7.52;100.00
75460;BME280;64039;53.060;9.342;2022-12-15T05:49:37;100232.44;;;-7.51;100.00
75460;BME280;64039;53.060;9.342;2022-12-15T05:52:02;100233.81;;;-7.45;100.00
75460;BME280;64039;53.060;9.342;2022-12-15T05:54:28;100233.28;;;-7.61;100.00
75460;BME280;64039;53.060;9.342;2022-12-15T05:56:53;100235.06;;;-7.60;100.00
75460;BME280;64039;53.060;9.342;2022-12-15T05:59:19;100237.47;;;-7.62;100.00
75460;BME280;64039;53.060;9.342;2022-12-15T06:01:45;100248.09;;;-7.55;100.00
75460;BME280;64039;53.060;9.342;2022-12-15T06:04:11;100252.50;;;-7.74;100.00
75460;BME280;64039;53.060;9.342;2022-12-15T06:06:37;100263.75;;;-7.70;100.00
75460;BME280;64039;53.060;9.342;2022-12-15T06:09:03;100253.03;;;-7.57;100.00
75460;BME280;64039;53.060;9.342;2022-12-15T06:11:29;100256.16;;;-7.70;100.00
75460;BME280;64039;53.060;9.342;2022-12-15T06:13:55;100263.53;;;-7.52;100.00
75460;BME280;64039;53.060;9.342;2022-12-15T06:16:23;100257.81;;;-7.60;100.00
75460;BME280;64039;53.060;9.342;2022-12-15T06:18:52;100256.94;;;-7.50;100.00
75460;BME280;64039;53.060;9.342;2022-12-15T06:21:21;100259.22;;;-7.53;100.00
75460;BME280;64039;53.060;9.342;2022-12-15T06:23:51;100267.56;;;-7.54;100.00
75460;BME280;64039;53.060;9.342;2022-12-15T06:26:25;100261.50;;;-7.46;100.00
75460;BME280;64039;53.060;9.342;2022-12-15T06:28:52;100269.72;;;-7.28;100.00
75460;BME280;64039;53.060;9.342;2022-12-15T06:31:19;100269.34;;;-7.33;100.00
75460;BME280;64039;53.060;9.342;2022-12-15T06:33:48;100274.16;;;-7.26;100.00
75460;BME280;64039;53.060;9.342;2022-12-15T06:36:16;100273.41;;;-7.24;100.00
75460;BME280;64039;53.060;9.342;2022-12-15T06:38:42;100273.28;;;-7.26;100.00
75460;BME280;64039;53.060;9.342;2022-12-15T06:41:08;100277.06;;;-7.11;100.00
75460;BME280;64039;53.060;9.342;2022-12-15T06:43:34;100271.66;;;-7.05;100.00
75460;BME280;64039;53.060;9.342;2022-12-15T06:46:01;100278.22;;;-7.07;100.00
75460;BME280;64039;53.060;9.342;2022-12-15T06:48:26;100280.25;;;-7.13;100.00
75460;BME280;64039;53.060;9.342;2022-12-15T06:50:52;100288.34;;;-7.07;100.00
75460;BME280;64039;53.060;9.342;2022-12-15T06:53:20;100285.56;;;-7.00;100.00
75460;BME280;64039;53.060;9.342;2022-12-15T06:55:47;100299.09;;;-7.09;100.00
75460;BME280;64039;53.060;9.342;2022-12-15T06:58:13;100305.66;;;-7.01;100.00
75460;BME280;64039;53.060;9.342;2022-12-15T07:00:41;100305.03;;;-6.99;100.00
75460;BME280;64039;53.060;9.342;2022-12-15T07:03:11;100308.31;;;-7.00;100.00
75460;BME280;64039;53.060;9.342;2022-12-15T07:05:37;100312.88;;;-7.06;100.00
75460;BME280;64039;53.060;9.342;2022-12-15T07:08:02;100314.78;;;-7.03;100.00
75460;BME280;64039;53.060;9.342;2022-12-15T07:10:28;100309.72;;;-6.93;100.00
75460;BME280;64039;53.060;9.342;2022-12-15T07:12:55;100320.47;;;-6.96;100.00
75460;BME280;64039;53.060;9.342;2022-12-15T07:15:22;100318.59;;;-6.98;100.00
75460;BME280;64039;53.060;9.342;2022-12-15T07:17:47;100316.44;;;-7.04;100.00
75460;BME280;64039;53.060;9.342;2022-12-15T07:20:13;100324.03;;;-7.04;100.00
75460;BME280;64039;53.060;9.342;2022-12-15T07:22:38;100333.00;;;-6.97;100.00
75460;BME280;64039;53.060;9.342;2022-12-15T07:25:04;100326.41;;;-6.95;100.00
75460;BME280;64039;53.060;9.342;2022-12-15T07:27:30;100321.50;;;-6.93;100.00
75460;BME280;64039;53.060;9.342;2022-12-15T07:29:55;100334.00;;;-6.95;100.00
75460;BME280;64039;53.060;9.342;2022-12-15T07:32:21;100338.19;;;-6.85;100.00
75460;BME280;64039;53.060;9.342;2022-12-15T07:34:46;100331.38;;;-6.76;100.00
75460;BME280;64039;53.060;9.342;2022-12-15T07:37:11;100327.94;;;-6.76;100.00
75460;BME280;64039;53.060;9.342;2022-12-15T07:39:37;100338.97;;;-6.76;100.00
75460;BME280;64039;53.060;9.342;2022-12-15T07:42:02;100346.41;;;-6.77;100.00
75460;BME280;64039;53.060;9.342;2022-12-15T07:44:28;100348.94;;;-6.77;100.00
75460;BME280;64039;53.060;9.342;2022-12-15T07:46:54;100346.78;;;-6.73;100.00
75460;BME280;64039;53.060;9.342;2022-12-15T07:49:19;100356.38;;;-6.58;100.00
75460;BME280;64039;53.060;9.342;2022-12-15T07:51:45;100360.84;;;-6.56;100.00
75460;BME280;64039;53.060;9.342;2022-12-15T07:54:11;100367.53;;;-6.56;100.00
75460;BME280;64039;53.060;9.342;2022-12-15T07:56:38;100365.16;;;-6.55;100.00
75460;BME280;64039;53.060;9.342;2022-12-15T07:59:04;100364.50;;;-6.52;100.00
75460;BME280;64039;53.060;9.342;2022-12-15T08:01:29;100356.28;;;-6.39;100.00
75460;BME280;64039;53.060;9.342;2022-12-15T08:03:55;100358.66;;;-6.30;100.00
75460;BME280;64039;53.060;9.342;2022-12-15T08:06:20;100357.41;;;-6.36;100.00
75460;BME280;64039;53.060;9.342;2022-12-15T08:08:46;100367.63;;;-6.24;100.00
75460;BME280;64039;53.060;9.342;2022-12-15T08:11:13;100371.69;;;-6.26;100.00
75460;BME280;64039;53.060;9.342;2022-12-15T08:13:40;100368.66;;;-6.32;100.00
75460;BME280;64039;53.060;9.342;2022-12-15T08:16:06;100374.75;;;-6.30;100.00
75460;BME280;64039;53.060;9.342;2022-12-15T08:18:31;100372.22;;;-6.30;100.00
75460;BME280;64039;53.060;9.342;2022-12-15T08:21:04;100380.53;;;-6.21;100.00
75460;BME280;64039;53.060;9.342;2022-12-15T08:23:31;100392.09;;;-6.35;100.00
75460;BME280;64039;53.060;9.342;2022-12-15T08:26:08;100399.06;;;-6.22;100.00
75460;BME280;64039;53.060;9.342;2022-12-15T08:28:35;100386.88;;;-6.16;100.00
75460;BME280;64039;53.060;9.342;2022-12-15T08:31:07;100392.22;;;-6.23;100.00
75460;BME280;64039;53.060;9.342;2022-12-15T08:33:35;100399.28;;;-6.19;100.00
75460;BME280;64039;53.060;9.342;2022-12-15T08:36:03;100397.50;;;-6.20;100.00
75460;BME280;64039;53.060;9.342;2022-12-15T08:38:29;100396.38;;;-6.13;100.00
75460;BME280;64039;53.060;9.342;2022-12-15T08:40:55;100395.03;;;-5.97;100.00
75460;BME280;64039;53.060;9.342;2022-12-15T08:43:21;100403.31;;;-6.00;100.00
75460;BME280;64039;53.060;9.342;2022-12-15T08:45:47;100400.84;;;-5.88;100.00
75460;BME280;64039;53.060;9.342;2022-12-15T08:48:13;100400.34;;;-5.84;100.00
75460;BME280;64039;53.060;9.342;2022-12-15T08:50:43;100402.06;;;-5.73;100.00
75460;BME280;64039;53.060;9.342;2022-12-15T08:53:10;100407.38;;;-5.70;100.00
75460;BME280;64039;53.060;9.342;2022-12-15T08:55:36;100406.34;;;-5.61;100.00
75460;BME280;64039;53.060;9.342;2022-12-15T08:58:01;100409.25;;;-5.57;100.00
75460;BME280;64039;53.060;9.342;2022-12-15T09:00:27;100413.41;;;-5.57;100.00
75460;BME280;64039;53.060;9.342;2022-12-15T09:02:52;100418.16;;;-5.40;100.00
75460;BME280;64039;53.060;9.342;2022-12-15T09:05:17;100418.53;;;-5.35;100.00
75460;BME280;64039;53.060;9.342;2022-12-15T09:07:43;100418.00;;;-5.31;100.00
75460;BME280;64039;53.060;9.342;2022-12-15T09:10:08;100413.00;;;-5.19;100.00
75460;BME280;64039;53.060;9.342;2022-12-15T09:12:34;100414.41;;;-5.23;100.00
75460;BME280;64039;53.060;9.342;2022-12-15T09:14:59;100410.28;;;-5.10;100.00
75460;BME280;64039;53.060;9.342;2022-12-15T09:17:25;100410.94;;;-4.91;100.00
75460;BME280;64039;53.060;9.342;2022-12-15T09:19:50;100415.41;;;-4.98;100.00
75460;BME280;64039;53.060;9.342;2022-12-15T09:22:17;100413.06;;;-4.85;100.00
75460;BME280;64039;53.060;9.342;2022-12-15T09:24:42;100411.38;;;-4.62;100.00
75460;BME280;64039;53.060;9.342;2022-12-15T09:27:08;100404.56;;;-4.39;100.00
75460;BME280;64039;53.060;9.342;2022-12-15T09:29:34;100409.91;;;-4.13;100.00
75460;BME280;64039;53.060;9.342;2022-12-15T09:32:00;100410.50;;;-3.93;100.00
75460;BME280;64039;53.060;9.342;2022-12-15T09:34:26;100416.13;;;-3.73;100.00
75460;BME280;64039;53.060;9.342;2022-12-15T09:36:51;100415.34;;;-3.72;100.00
75460;BME280;64039;53.060;9.342;2022-12-15T09:39:17;100420.78;;;-3.68;100.00
75460;BME280;64039;53.060;9.342;2022-12-15T09:41:50;100423.53;;;-3.53;100.00
75460;BME280;64039;53.060;9.342;2022-12-15T09:44:18;100430.16;;;-3.55;100.00
75460;BME280;64039;53.060;9.342;2022-12-15T09:47:15;100429.94;;;-3.34;100.00
75460;BME280;64039;53.060;9.342;2022-12-15T09:49:54;100420.94;;;-3.29;100.00
75460;BME280;64039;53.060;9.342;2022-12-15T09:54:48;100410.44;;;-3.34;100.00
75460;BME280;64039;53.060;9.342;2022-12-15T09:57:35;100417.94;;;-3.23;100.00
75460;BME280;64039;53.060;9.342;2022-12-15T10:00:35;100417.09;;;-3.24;100.00
75460;BME280;64039;53.060;9.342;2022-12-15T10:06:08;100410.38;;;-3.10;100.00
75460;BME280;64039;53.060;9.342;2022-12-15T10:08:41;100427.25;;;-3.36;100.00
75460;BME280;64039;53.060;9.342;2022-12-15T10:12:04;100433.69;;;-3.41;100.00
75460;BME280;64039;53.060;9.342;2022-12-15T10:14:24;100437.91;;;-3.29;100.00
75460;BME280;64039;53.060;9.342;2022-12-15T10:16:54;100441.19;;;-3.19;100.00
75460;BME280;64039;53.060;9.342;2022-12-15T10:19:47;100436.63;;;-3.23;100.00
75460;BME280;64039;53.060;9.342;2022-12-15T10:22:21;100428.44;;;-3.07;100.00
75460;BME280;64039;53.060;9.342;2022-12-15T10:24:48;100435.75;;;-3.11;100.00
75460;BME280;64039;53.060;9.342;2022-12-15T10:30:03;100421.84;;;-2.91;100.00
75460;BME280;64039;53.060;9.342;2022-12-15T10:35:21;100428.75;;;-2.65;100.00
75460;BME280;64039;53.060;9.342;2022-12-15T10:37:47;100424.13;;;-2.57;100.00
75460;BME280;64039;53.060;9.342;2022-12-15T10:40:18;100429.38;;;-2.42;100.00
75460;BME280;64039;53.060;9.342;2022-12-15T10:42:49;100430.19;;;-2.30;100.00
75460;BME280;64039;53.060;9.342;2022-12-15T10:45:30;100428.34;;;-2.32;100.00
75460;BME280;64039;53.060;9.342;2022-12-15T10:47:58;100431.25;;;-2.14;100.00
75460;BME280;64039;53.060;9.342;2022-12-15T10:50:24;100426.56;;;-2.33;100.00
75460;BME280;64039;53.060;9.342;2022-12-15T10:52:50;100428.25;;;-2.34;100.00
75460;BME280;64039;53.060;9.342;2022-12-15T10:58:01;100416.50;;;-2.32;100.00
75460;BME280;64039;53.060;9.342;2022-12-15T11:00:32;100415.44;;;-2.47;100.00
75460;BME280;64039;53.060;9.342;2022-12-15T11:02:58;100416.44;;;-2.45;100.00
75460;BME280;64039;53.060;9.342;2022-12-15T11:05:24;100426.84;;;-2.42;100.00
75460;BME280;64039;53.060;9.342;2022-12-15T11:07:55;100422.94;;;-2.37;100.00
75460;BME280;64039;53.060;9.342;2022-12-15T11:10:31;100421.69;;;-2.30;100.00
75460;BME280;64039;53.060;9.342;2022-12-15T11:13:19;100430.56;;;-2.37;100.00
75460;BME280;64039;53.060;9.342;2022-12-15T11:15:47;100420.22;;;-2.27;100.00
75460;BME280;64039;53.060;9.342;2022-12-15T11:20:53;100422.38;;;-2.19;100.00
75460;BME280;64039;53.060;9.342;2022-12-15T11:26:23;100428.47;;;-2.17;100.00
75460;BME280;64039;53.060;9.342;2022-12-15T11:29:05;100435.44;;;-2.15;100.00
75460;BME280;64039;53.060;9.342;2022-12-15T11:31:39;100435.66;;;-2.12;100.00
75460;BME280;64039;53.060;9.342;2022-12-15T11:34:14;100442.91;;;-2.04;100.00
75460;BME280;64039;53.060;9.342;2022-12-15T11:45:11;100439.69;;;-1.88;100.00
75460;BME280;64039;53.060;9.342;2022-12-15T11:47:48;100444.00;;;-1.87;100.00
75460;BME280;64039;53.060;9.342;2022-12-15T11:56:52;100451.19;;;-1.55;100.00
75460;BME280;64039;53.060;9.342;2022-12-15T12:07:12;100457.47;;;-1.36;100.00
75460;BME280;64039;53.060;9.342;2022-12-15T12:09:46;100463.06;;;-1.42;100.00
75460;BME280;64039;53.060;9.342;2022-12-15T12:12:25;100457.66;;;-1.47;100.00
75460;BME280;64039;53.060;9.342;2022-12-15T12:15:14;100464.81;;;-1.54;100.00
75460;BME280;64039;53.060;9.342;2022-12-15T12:17:51;100463.88;;;-1.56;100.00
75460;BME280;64039;53.060;9.342;2022-12-15T12:20:33;100459.25;;;-1.62;100.00
75460;BME280;64039;53.060;9.342;2022-12-15T12:23:20;100461.31;;;-1.56;100.00
75460;BME280;64039;53.060;9.342;2022-12-15T12:29:02;100455.63;;;-1.66;100.00
75460;BME280;64039;53.060;9.342;2022-12-15T12:31:54;100467.91;;;-1.60;100.00
75460;BME280;64039;53.060;9.342;2022-12-15T12:37:26;100452.56;;;-1.74;100.00
75460;BME280;64039;53.060;9.342;2022-12-15T12:39:59;100457.25;;;-1.66;100.00
75460;BME280;64039;53.060;9.342;2022-12-15T12:42:32;100457.66;;;-1.74;100.00
75460;BME280;64039;53.060;9.342;2022-12-15T12:45:00;100448.34;;;-1.73;100.00
75460;BME280;64039;53.060;9.342;2022-12-15T12:47:32;100454.31;;;-1.72;100.00
75460;BME280;64039;53.060;9.342;2022-12-15T12:50:11;100449.31;;;-1.71;100.00
75460;BME280;64039;53.060;9.342;2022-12-15T12:52:47;100451.78;;;-1.72;100.00
75460;BME280;64039;53.060;9.342;2022-12-15T12:55:22;100457.38;;;-1.65;100.00
75460;BME280;64039;53.060;9.342;2022-12-15T12:57:50;100455.13;;;-1.60;100.00
75460;BME280;64039;53.060;9.342;2022-12-15T13:00:27;100454.31;;;-1.59;100.00
75460;BME280;64039;53.060;9.342;2022-12-15T13:05:33;100454.63;;;-1.68;100.00
75460;BME280;64039;53.060;9.342;2022-12-15T13:10:33;100455.13;;;-1.60;100.00
75460;BME280;64039;53.060;9.342;2022-12-15T13:16:23;100449.41;;;-1.56;100.00
75460;BME280;64039;53.060;9.342;2022-12-15T13:18:55;100446.19;;;-1.53;100.00
75460;BME280;64039;53.060;9.342;2022-12-15T13:26:52;100444.81;;;-1.48;100.00
75460;BME280;64039;53.060;9.342;2022-12-15T13:29:27;100444.31;;;-1.56;100.00
75460;BME280;64039;53.060;9.342;2022-12-15T13:31:52;100437.25;;;-1.47;100.00
75460;BME280;64039;53.060;9.342;2022-12-15T13:34:20;100443.75;;;-1.52;100.00
75460;BME280;64039;53.060;9.342;2022-12-15T13:36:49;100442.28;;;-1.48;100.00
75460;BME280;64039;53.060;9.342;2022-12-15T13:44:48;100440.69;;;-1.60;100.00
75460;BME280;64039;53.060;9.342;2022-12-15T13:47:21;100436.44;;;-1.59;100.00
75460;BME280;64039;53.060;9.342;2022-12-15T13:52:37;100431.84;;;-1.51;100.00
75460;BME280;64039;53.060;9.342;2022-12-15T13:55:18;100434.69;;;-1.47;100.00
75460;BME280;64039;53.060;9.342;2022-12-15T14:00:35;100450.78;;;-1.48;100.00
75460;BME280;64039;53.060;9.342;2022-12-15T14:03:08;100449.22;;;-1.59;100.00
75460;BME280;64039;53.060;9.342;2022-12-15T14:05:36;100446.38;;;-1.50;100.00
75460;BME280;64039;53.060;9.342;2022-12-15T14:08:08;100449.72;;;-1.51;100.00
75460;BME280;64039;53.060;9.342;2022-12-15T14:13:09;100446.78;;;-1.58;100.00
75460;BME280;64039;53.060;9.342;2022-12-15T14:15:44;100447.78;;;-1.55;100.00
75460;BME280;64039;53.060;9.342;2022-12-15T14:18:22;100457.47;;;-1.63;100.00
75460;BME280;64039;53.060;9.342;2022-12-15T14:20:48;100453.84;;;-1.53;100.00
75460;BME280;64039;53.060;9.342;2022-12-15T14:23:22;100455.72;;;-1.78;100.00
75460;BME280;64039;53.060;9.342;2022-12-15T14:26:06;100463.16;;;-1.81;100.00
75460;BME280;64039;53.060;9.342;2022-12-15T14:28:34;100461.59;;;-1.79;100.00
75460;BME280;64039;53.060;9.342;2022-12-15T14:31:03;100458.34;;;-1.76;100.00
75460;BME280;64039;53.060;9.342;2022-12-15T14:33:32;100464.31;;;-1.89;100.00
75460;BME280;64039;53.060;9.342;2022-12-15T14:35:59;100468.03;;;-1.84;100.00